createdAt,value
2019-02-22T00:00:38.450Z,40.13
2019-02-22T00:03:40.419Z,38.33
2019-02-22T00:06:42.423Z,35.87
2019-02-22T00:09:49.506Z,40.23
2019-02-22T00:12:48.293Z,38.23
2019-02-22T00:15:50.348Z,39.07
2019-02-22T00:18:52.547Z,40.03
2019-02-22T00:21:54.503Z,41.43
2019-02-22T00:24:56.476Z,45.63
2019-02-22T00:27:58.476Z,43.33
2019-02-22T00:31:00.376Z,36.90
2019-02-22T00:34:02.370Z,39.77
2019-02-22T00:37:04.292Z,38.03
2019-02-22T00:40:06.281Z,38.43
2019-02-22T00:43:08.220Z,36.90
2019-02-22T00:46:10.145Z,34.83
2019-02-22T00:49:12.117Z,32.37
2019-02-22T00:52:14.041Z,35.97
2019-02-22T00:55:15.983Z,35.53
2019-02-22T00:58:17.937Z,33.53
2019-02-22T01:01:19.878Z,34.83
2019-02-22T01:04:21.919Z,32.13
2019-02-22T01:07:24.519Z,33.23
2019-02-22T01:10:31.152Z,31.57
2019-02-22T01:13:30.343Z,34.63
2019-02-22T01:16:32.304Z,27.17
2019-02-22T01:19:34.362Z,35.73
2019-02-22T01:22:36.518Z,30.20
2019-02-22T01:25:38.425Z,32.30
2019-02-22T01:28:40.374Z,33.77
2019-02-22T01:31:42.223Z,31.07
2019-02-22T01:34:44.160Z,29.47
2019-02-22T01:37:46.074Z,27.23
2019-02-22T01:40:47.985Z,28.10
2019-02-22T01:43:49.886Z,28.27
2019-02-22T01:46:51.750Z,30.70
2019-02-22T01:49:53.905Z,29.77
2019-02-22T01:52:55.859Z,28.40
2019-02-22T01:55:57.859Z,28.73
2019-02-22T01:59:00.311Z,24.07
2019-02-22T02:02:02.321Z,28.40
2019-02-22T02:05:05.611Z,25.80
2019-02-22T02:08:07.649Z,24.90
2019-02-22T02:11:09.546Z,27.03
2019-02-22T02:14:11.507Z,23.93
2019-02-22T02:17:13.514Z,21.73
2019-02-22T02:20:16.259Z,25.03
2019-02-22T02:23:18.259Z,18.67
2019-02-22T02:26:20.188Z,22.93
2019-02-22T02:29:22.192Z,21.13
2019-02-22T02:32:24.116Z,17.03
2019-02-22T02:35:26.101Z,20.90
2019-02-22T02:38:28.180Z,17.50
2019-02-22T02:41:30.186Z,18.17
2019-02-22T02:44:32.208Z,18.87
2019-02-22T02:47:34.144Z,19.73
2019-02-22T02:50:36.150Z,14.43
2019-02-22T02:53:38.075Z,12.80
2019-02-22T02:56:40.003Z,12.73
2019-02-22T02:59:41.980Z,11.80
2019-02-22T03:02:45.236Z,13.70
2019-02-22T03:05:51.912Z,12.17
2019-02-22T03:08:53.850Z,13.00
2019-02-22T03:11:55.884Z,11.67
2019-02-22T03:14:57.831Z,11.47
2019-02-22T03:17:59.838Z,11.27
2019-02-22T03:21:01.996Z,13.43
2019-02-22T03:24:03.942Z,11.63
2019-02-22T03:27:05.927Z,5.73
2019-02-22T03:30:09.781Z,3.83
2019-02-22T03:33:12.070Z,4.80
2019-02-22T03:36:14.024Z,11.83
2019-02-22T03:39:15.946Z,14.77
2019-02-22T03:42:17.985Z,9.67
2019-02-22T03:45:19.934Z,8.03
2019-02-22T03:48:21.855Z,10.43
2019-02-22T03:51:23.797Z,7.80
2019-02-22T03:54:25.909Z,16.93
2019-02-22T03:57:27.871Z,11.83
2019-02-22T04:00:29.875Z,7.30
2019-02-22T04:03:31.827Z,4.53
2019-02-22T04:06:33.837Z,3.77
2019-02-22T04:09:35.822Z,4.03
2019-02-22T04:12:37.791Z,3.80
2019-02-22T04:15:39.711Z,5.20
2019-02-22T04:18:41.641Z,3.93
2019-02-22T04:21:43.796Z,4.73
2019-02-22T04:24:45.759Z,6.43
2019-02-22T04:27:47.682Z,7.63
2019-02-22T04:30:49.586Z,8.40
2019-02-22T04:33:51.594Z,7.23
2019-02-22T04:36:53.512Z,5.00
2019-02-22T04:39:55.506Z,8.87
2019-02-22T04:42:57.479Z,8.77
2019-02-22T04:45:59.592Z,11.93
2019-02-22T04:49:01.597Z,15.10
2019-02-22T04:52:03.662Z,21.30
2019-02-22T04:55:05.676Z,19.27
2019-02-22T04:58:08.048Z,15.27
2019-02-22T05:01:09.997Z,12.47
2019-02-22T05:04:12.146Z,15.77
2019-02-22T05:07:14.108Z,18.63
2019-02-22T05:10:16.099Z,21.90
2019-02-22T05:13:18.129Z,25.47
2019-02-22T05:16:20.136Z,23.00
2019-02-22T05:19:22.121Z,18.17
2019-02-22T05:22:24.241Z,13.13
2019-02-22T05:25:26.227Z,14.30
2019-02-22T05:28:28.159Z,12.67
2019-02-22T05:31:30.066Z,10.83
2019-02-22T05:34:32.072Z,19.90
2019-02-22T05:37:34.056Z,25.20
2019-02-22T05:40:36.030Z,15.80
2019-02-22T05:43:38.020Z,22.47
2019-02-22T05:46:41.437Z,14.07
2019-02-22T05:49:43.391Z,12.37
2019-02-22T05:52:45.544Z,10.93
2019-02-22T05:55:47.493Z,10.30
2019-02-22T05:58:49.420Z,12.97
2019-02-22T06:01:51.349Z,16.70
2019-02-22T06:04:53.269Z,70.57
2019-02-22T06:07:55.164Z,142.37
2019-02-22T06:10:57.037Z,40.37
2019-02-22T06:13:59.054Z,28.13
2019-02-22T06:17:01.006Z,249.13
2019-02-22T06:20:09.081Z,43.47
2019-02-22T06:23:11.158Z,133.70
2019-02-22T06:26:13.122Z,101.20
2019-02-22T06:29:15.044Z,64.67
2019-02-22T06:32:16.964Z,47.97
2019-02-22T06:35:18.875Z,28.03
2019-02-22T06:38:20.830Z,33.07
2019-02-22T06:41:22.729Z,28.47
2019-02-22T06:44:24.713Z,21.20
2019-02-22T06:47:28.405Z,41.13
2019-02-22T06:53:34.466Z,52.10
2019-02-22T06:56:36.492Z,46.60
2019-02-22T06:59:38.388Z,42.80
2019-02-22T07:02:40.385Z,37.80
2019-02-22T07:05:42.321Z,34.10
2019-02-22T07:08:44.328Z,41.97
2019-02-22T07:11:50.558Z,84.03
2019-02-22T07:14:52.519Z,117.37
2019-02-22T07:17:54.506Z,66.93
2019-02-22T07:20:56.439Z,66.90
2019-02-22T07:23:58.646Z,55.43
2019-02-22T07:27:00.568Z,35.57
2019-02-22T07:30:04.272Z,33.67
2019-02-22T07:33:06.191Z,23.07
2019-02-22T07:36:08.170Z,32.27
2019-02-22T07:39:10.131Z,27.83
2019-02-22T07:42:12.103Z,19.13
2019-02-22T07:45:14.039Z,21.23
2019-02-22T07:48:16.125Z,18.00
2019-02-22T07:51:18.201Z,97.03
2019-02-22T07:54:20.243Z,69.33
2019-02-22T07:57:22.202Z,80.60
2019-02-22T08:00:24.677Z,36.93
2019-02-22T08:03:26.560Z,53.07
2019-02-22T08:06:28.525Z,29.67
2019-02-22T08:09:30.444Z,17.57
2019-02-22T08:12:32.503Z,28.53
2019-02-22T08:15:35.397Z,25.07
2019-02-22T08:18:37.871Z,19.90
2019-02-22T08:21:39.862Z,16.50
2019-02-22T08:24:42.029Z,14.87
2019-02-22T08:27:53.150Z,16.27
2019-02-22T08:30:47.898Z,21.90
2019-02-22T08:33:49.844Z,18.23
2019-02-22T08:36:51.885Z,36.60
2019-02-22T08:39:58.520Z,28.17
2019-02-22T08:42:59.079Z,91.63
2019-02-22T08:46:01.054Z,24.83
2019-02-22T08:49:03.564Z,71.83
2019-02-22T08:52:05.728Z,31.60
2019-02-22T08:55:07.746Z,33.40
2019-02-22T08:58:09.811Z,21.93
2019-02-22T09:01:11.708Z,48.03
2019-02-22T09:04:13.718Z,25.80
2019-02-22T09:07:15.634Z,31.80
2019-02-22T09:10:17.513Z,67.77
2019-02-22T09:13:19.478Z,59.70
2019-02-22T09:16:21.427Z,91.30
2019-02-22T09:19:23.407Z,155.83
2019-02-22T09:22:25.306Z,81.10
2019-02-22T09:25:27.510Z,140.00
2019-02-22T09:28:29.489Z,109.80
2019-02-22T09:31:31.439Z,14.20
2019-02-22T09:34:33.397Z,53.57
2019-02-22T09:37:35.356Z,20.93
2019-02-22T09:40:37.323Z,27.10
2019-02-22T09:43:39.334Z,68.27
2019-02-22T09:46:41.273Z,10.37
2019-02-22T09:49:43.664Z,62.00
2019-02-22T09:52:45.544Z,9.43
2019-02-22T09:55:47.554Z,15.07
2019-02-22T09:58:50.361Z,54.00
2019-02-22T10:01:52.318Z,29.90
2019-02-22T10:04:55.605Z,30.47
2019-02-22T10:07:57.975Z,29.53
2019-02-22T10:10:59.939Z,20.80
2019-02-22T10:14:06.628Z,32.33
2019-02-22T10:17:05.799Z,24.47
2019-02-22T10:20:10.888Z,21.20
2019-02-22T10:23:12.840Z,22.63
2019-02-22T10:26:15.005Z,19.27
2019-02-22T10:29:16.962Z,8.10
2019-02-22T10:32:18.899Z,8.57
2019-02-22T10:35:20.889Z,11.93
2019-02-22T10:38:22.866Z,10.10
2019-02-22T10:41:24.838Z,11.00
2019-02-22T10:44:26.785Z,12.23
2019-02-22T10:47:28.740Z,10.70
2019-02-22T10:50:31.601Z,8.97
2019-02-22T10:53:33.528Z,8.40
2019-02-22T10:56:35.638Z,8.37
2019-02-22T10:59:37.596Z,9.03
2019-02-22T11:02:39.642Z,6.73
2019-02-22T11:05:41.601Z,8.73
2019-02-22T11:08:43.514Z,9.30
2019-02-22T11:11:45.495Z,18.67
2019-02-22T11:14:47.456Z,7.97
2019-02-22T11:17:49.376Z,9.50
2019-02-22T11:20:51.384Z,11.20
2019-02-22T11:23:53.292Z,12.57
2019-02-22T11:26:55.579Z,13.80
2019-02-22T11:29:57.579Z,16.20
2019-02-22T11:32:59.516Z,9.60
2019-02-22T11:36:01.474Z,9.37
2019-02-22T11:39:05.528Z,43.53
2019-02-22T11:42:08.787Z,34.73
2019-02-22T11:45:11.024Z,66.90
2019-02-22T11:48:12.942Z,20.03
2019-02-22T11:51:15.898Z,74.00
2019-02-22T11:54:17.804Z,46.07
2019-02-22T11:57:20.207Z,69.07
2019-02-22T12:00:26.092Z,78.63
2019-02-22T12:03:28.106Z,96.17
2019-02-22T12:06:30.058Z,13.57
2019-02-22T12:09:31.962Z,102.30
2019-02-22T12:12:33.874Z,30.63
2019-02-22T12:15:35.834Z,14.47
2019-02-22T12:18:38.104Z,5.83
2019-02-22T12:21:40.062Z,8.87
2019-02-22T12:24:42.024Z,21.30
2019-02-22T12:27:44.034Z,26.97
2019-02-22T12:30:45.980Z,7.00
2019-02-22T12:33:48.208Z,17.13
2019-02-22T12:36:50.388Z,9.33
2019-02-22T12:39:52.413Z,6.63
2019-02-22T12:42:54.358Z,21.10
2019-02-22T12:45:56.404Z,14.67
2019-02-22T12:48:58.328Z,13.50
2019-02-22T12:52:00.713Z,35.73
2019-02-22T12:55:04.769Z,28.27
2019-02-22T12:58:06.830Z,6.20
2019-02-22T13:01:08.716Z,11.47
2019-02-22T13:04:10.732Z,9.53
2019-02-22T13:07:13.830Z,6.57
2019-02-22T13:10:16.258Z,9.30
2019-02-22T13:13:18.252Z,6.90
2019-02-22T13:16:20.281Z,10.13
2019-02-22T13:19:22.280Z,8.97
2019-02-22T13:22:24.306Z,22.47
2019-02-22T13:25:26.238Z,21.30
2019-02-22T13:28:28.401Z,13.13
2019-02-22T13:31:30.567Z,10.13
2019-02-22T13:34:32.543Z,9.07
2019-02-22T13:37:34.497Z,9.23
2019-02-22T13:40:36.498Z,9.67
2019-02-22T13:43:38.443Z,11.27
2019-02-22T13:46:40.449Z,11.50
2019-02-22T13:49:42.496Z,9.73
2019-02-22T13:52:45.281Z,13.40
2019-02-22T13:55:47.436Z,15.57
2019-02-22T13:58:49.543Z,8.70
2019-02-22T14:01:52.975Z,12.57
2019-02-22T14:04:55.574Z,14.83
2019-02-22T14:07:57.562Z,8.77
2019-02-22T14:10:59.591Z,12.50
2019-02-22T14:14:01.683Z,14.87
2019-02-22T14:17:03.847Z,9.97
2019-02-22T14:20:07.089Z,11.10
2019-02-22T14:23:09.155Z,12.43
2019-02-22T14:26:11.126Z,10.60
2019-02-22T14:29:13.334Z,10.47
2019-02-22T14:32:15.301Z,17.07
2019-02-22T14:35:17.444Z,16.57
2019-02-22T14:38:19.489Z,76.10
2019-02-22T14:41:21.579Z,10.63
2019-02-22T14:44:23.758Z,19.43
2019-02-22T14:47:25.919Z,45.77
2019-02-22T14:50:27.874Z,72.83
2019-02-22T14:53:30.432Z,52.73
2019-02-22T14:56:32.447Z,51.07
2019-02-22T14:59:34.597Z,10.57
2019-02-22T15:02:36.763Z,10.60
2019-02-22T15:05:38.863Z,38.80
2019-02-22T15:08:40.838Z,24.80
2019-02-22T15:11:43.836Z,30.97
2019-02-22T15:14:45.969Z,23.53
2019-02-22T15:17:49.725Z,13.63
2019-02-22T15:20:51.843Z,23.60
2019-02-22T15:23:53.999Z,42.83
2019-02-22T15:26:56.063Z,34.20
2019-02-22T15:29:58.354Z,14.77
2019-02-22T15:33:00.362Z,18.73
2019-02-22T15:36:02.491Z,12.30
2019-02-22T15:39:05.110Z,11.57
2019-02-22T15:42:08.965Z,20.33
2019-02-22T15:45:16.457Z,28.30
2019-02-22T15:48:18.475Z,25.87
2019-02-22T15:51:20.489Z,25.33
2019-02-22T15:54:22.425Z,35.40
2019-02-22T15:57:25.202Z,37.67
2019-02-22T16:00:32.503Z,18.47
2019-02-22T16:03:39.226Z,23.90
2019-02-22T16:06:41.288Z,44.93
2019-02-22T16:09:43.459Z,56.13
2019-02-22T16:12:45.776Z,24.40
2019-02-22T16:15:48.566Z,22.73
2019-02-22T16:18:50.565Z,15.13
2019-02-22T16:21:52.581Z,21.73
2019-02-22T16:24:54.963Z,24.53
2019-02-22T16:27:56.870Z,20.67
2019-02-22T16:31:00.103Z,37.77
2019-02-22T16:34:02.068Z,27.67
2019-02-22T16:37:04.034Z,19.70
2019-02-22T16:40:08.832Z,21.80
2019-02-22T16:43:12.652Z,41.73
2019-02-22T16:46:15.134Z,28.50
2019-02-22T16:49:17.336Z,64.70
2019-02-22T16:52:19.304Z,31.13
2019-02-22T16:55:23.351Z,22.60
2019-02-22T16:58:25.490Z,60.50
2019-02-22T17:01:28.217Z,32.83
2019-02-22T17:04:30.239Z,28.67
2019-02-22T17:07:33.095Z,30.73
2019-02-22T17:10:37.015Z,31.80
2019-02-22T17:13:39.953Z,35.73
2019-02-22T17:16:46.078Z,38.67
2019-02-22T17:19:47.320Z,29.27
2019-02-22T17:22:51.225Z,46.77
2019-02-22T17:25:53.145Z,61.17
2019-02-22T17:28:55.165Z,187.47
2019-02-22T17:31:57.334Z,42.87
2019-02-22T17:35:01.250Z,31.40
2019-02-22T17:38:03.808Z,36.20
2019-02-22T17:41:06.191Z,142.90
2019-02-22T17:44:08.165Z,321.33
2019-02-22T17:47:12.642Z,366.73
2019-02-22T17:50:14.880Z,254.47
2019-02-22T17:53:16.957Z,308.17
2019-02-22T17:56:18.956Z,245.30
2019-02-22T17:59:20.854Z,193.83
2019-02-22T18:02:24.704Z,173.50
2019-02-22T18:05:28.077Z,135.10
2019-02-22T18:08:30.845Z,92.40
2019-02-22T18:11:32.789Z,103.50
2019-02-22T18:14:34.809Z,153.57
2019-02-22T18:17:36.768Z,99.37
2019-02-22T18:20:39.022Z,115.87
2019-02-22T18:23:41.201Z,46.13
2019-02-22T18:26:45.984Z,124.73
2019-02-22T18:29:48.212Z,288.33
2019-02-22T18:32:50.567Z,186.17
2019-02-22T18:35:52.947Z,152.50
2019-02-22T18:38:56.834Z,157.50
2019-02-22T18:41:59.118Z,180.60
2019-02-22T18:45:03.166Z,164.10
2019-02-22T18:48:06.138Z,156.43
2019-02-22T18:51:09.960Z,109.70
2019-02-22T18:54:12.333Z,194.37
2019-02-22T18:57:14.347Z,318.43
2019-02-22T19:00:20.298Z,233.80
2019-02-22T19:03:25.087Z,324.63
2019-02-22T19:06:27.067Z,124.50
2019-02-22T19:09:29.049Z,124.30
2019-02-22T19:12:32.422Z,71.90
2019-02-22T19:15:35.616Z,58.03
2019-02-22T19:18:40.971Z,77.67
2019-02-22T19:21:43.283Z,70.23
2019-02-22T19:24:45.266Z,51.00
2019-02-22T19:27:47.250Z,89.23
2019-02-22T19:30:49.201Z,101.63
2019-02-22T19:33:51.321Z,60.93
2019-02-22T19:36:55.772Z,96.23
2019-02-22T19:40:01.910Z,121.90
2019-02-22T19:43:06.259Z,121.03
2019-02-22T19:46:08.199Z,48.67
2019-02-22T19:49:10.157Z,41.10
2019-02-22T19:52:12.750Z,173.73
2019-02-22T19:55:19.106Z,108.63
2019-02-22T19:58:26.703Z,232.70
2019-02-22T20:01:29.363Z,123.70
2019-02-22T20:04:31.406Z,118.10
2019-02-22T20:07:34.043Z,239.70
2019-02-22T20:10:41.525Z,467.13
2019-02-22T20:13:44.881Z,59.53
2019-02-22T20:16:48.639Z,377.70
2019-02-22T20:19:52.578Z,267.07
2019-02-22T20:22:54.535Z,219.60
2019-02-22T20:25:58.576Z,127.03
2019-02-22T20:29:00.460Z,143.83
2019-02-22T20:32:02.747Z,343.83
2019-02-22T20:35:09.485Z,342.80
2019-02-22T20:38:11.639Z,315.73
2019-02-22T20:41:13.576Z,260.57
2019-02-22T20:44:15.564Z,211.57
2019-02-22T20:47:17.564Z,154.97
2019-02-22T20:50:23.158Z,109.07
2019-02-22T20:53:25.809Z,67.00
2019-02-22T20:56:29.217Z,62.47
2019-02-22T20:59:32.441Z,71.37
2019-02-22T21:02:34.435Z,121.80
2019-02-22T21:05:36.412Z,96.47
2019-02-22T21:08:38.409Z,110.13
2019-02-22T21:11:40.454Z,74.00
2019-02-22T21:14:44.322Z,112.60
2019-02-22T21:17:48.270Z,172.73
2019-02-22T21:20:50.258Z,168.03
2019-02-22T21:23:52.183Z,135.67
2019-02-22T21:26:54.123Z,108.00
2019-02-22T21:29:58.995Z,97.67
2019-02-22T21:33:05.170Z,147.47
2019-02-22T21:36:07.904Z,65.83
2019-02-22T21:39:09.918Z,113.07
2019-02-22T21:42:19.838Z,215.70
2019-02-22T21:45:16.365Z,125.60
2019-02-22T21:48:27.279Z,242.77
2019-02-22T21:51:22.717Z,142.63
2019-02-22T21:54:24.647Z,172.10
2019-02-22T21:57:26.636Z,148.70
2019-02-22T22:00:29.518Z,177.67
2019-02-22T22:03:31.517Z,103.40
2019-02-22T22:06:33.523Z,195.07
2019-02-22T22:09:40.490Z,290.70
2019-02-22T22:12:44.023Z,485.10
2019-02-22T22:15:46.082Z,301.60
2019-02-22T22:18:48.083Z,450.33
2019-02-22T22:21:50.004Z,193.17
2019-02-22T22:24:52.038Z,56.23
2019-02-22T22:27:54.539Z,60.03
2019-02-22T22:30:56.444Z,43.37
2019-02-22T22:33:58.398Z,46.63
2019-02-22T22:37:00.429Z,51.60
2019-02-22T22:40:02.569Z,57.87
2019-02-22T22:43:04.564Z,51.47
2019-02-22T22:46:06.550Z,63.07
2019-02-22T22:49:08.570Z,79.27
2019-02-22T22:52:10.530Z,188.00
2019-02-22T22:55:12.523Z,273.80
2019-02-22T22:58:14.484Z,166.40
2019-02-22T23:01:17.270Z,228.70
2019-02-22T23:04:19.475Z,98.67
2019-02-22T23:07:21.452Z,93.20
2019-02-22T23:10:23.387Z,89.07
2019-02-22T23:13:25.458Z,54.40
2019-02-22T23:16:27.577Z,37.27
2019-02-22T23:19:29.503Z,45.60
2019-02-22T23:22:31.462Z,42.70
2019-02-22T23:25:33.384Z,46.67
2019-02-22T23:28:35.358Z,62.07
2019-02-22T23:31:37.350Z,98.93
2019-02-22T23:34:39.281Z,98.33
2019-02-22T23:37:41.249Z,97.43
2019-02-22T23:40:43.260Z,62.93
2019-02-22T23:43:45.183Z,60.93
2019-02-22T23:46:47.140Z,51.07
2019-02-22T23:49:49.386Z,48.03
2019-02-22T23:52:51.292Z,42.83
2019-02-22T23:55:53.171Z,44.17
2019-02-22T23:58:55.149Z,44.90
